sensor_id;sensor_type;location;lat;lon;timestamp;P1;durP1;ratioP1;P2;durP2;ratioP2
3801;SDS011;1916;51.798;12.246;2022-08-24T00:00:59;11.03;;;7.90;;
3801;SDS011;1916;51.798;12.246;2022-08-24T00:03:01;12.13;;;9.27;;
3801;SDS011;1916;51.798;12.246;2022-08-24T00:05:03;10.80;;;8.33;;
3801;SDS011;1916;51.798;12.246;2022-08-24T00:07:06;9.93;;;8.70;;
3801;SDS011;1916;51.798;12.246;2022-08-24T00:09:29;10.37;;;7.80;;
3801;SDS011;1916;51.798;12.246;2022-08-24T00:11:31;9.03;;;7.43;;
3801;SDS011;1916;51.798;12.246;2022-08-24T00:13:34;9.43;;;8.27;;
3801;SDS011;1916;51.798;12.246;2022-08-24T00:15:40;8.80;;;8.00;;
3801;SDS011;1916;51.798;12.246;2022-08-24T00:17:42;10.00;;;8.77;;
3801;SDS011;1916;51.798;12.246;2022-08-24T00:19:45;10.47;;;8.50;;
3801;SDS011;1916;51.798;12.246;2022-08-24T00:21:47;9.33;;;8.40;;
3801;SDS011;1916;51.798;12.246;2022-08-24T00:23:49;10.30;;;8.87;;
3801;SDS011;1916;51.798;12.246;2022-08-24T00:25:52;10.00;;;9.00;;
3801;SDS011;1916;51.798;12.246;2022-08-24T00:27:54;14.50;;;8.70;;
3801;SDS011;1916;51.798;12.246;2022-08-24T00:29:56;10.40;;;9.17;;
3801;SDS011;1916;51.798;12.246;2022-08-24T00:31:58;15.80;;;9.57;;
3801;SDS011;1916;51.798;12.246;2022-08-24T00:34:00;13.40;;;9.83;;
3801;SDS011;1916;51.798;12.246;2022-08-24T00:36:03;11.20;;;9.60;;
3801;SDS011;1916;51.798;12.246;2022-08-24T00:38:06;8.57;;;7.70;;
3801;SDS011;1916;51.798;12.246;2022-08-24T00:44:19;9.10;;;8.20;;
3801;SDS011;1916;51.798;12.246;2022-08-24T00:46:24;9.90;;;7.87;;
3801;SDS011;1916;51.798;12.246;2022-08-24T00:48:31;11.50;;;9.13;;
3801;SDS011;1916;51.798;12.246;2022-08-24T00:52:45;12.60;;;9.83;;
3801;SDS011;1916;51.798;12.246;2022-08-24T00:54:52;10.43;;;8.97;;
3801;SDS011;1916;51.798;12.246;2022-08-24T00:56:58;12.70;;;9.77;;
3801;SDS011;1916;51.798;12.246;2022-08-24T00:59:06;15.83;;;11.27;;
3801;SDS011;1916;51.798;12.246;2022-08-24T01:01:12;14.57;;;10.63;;
3801;SDS011;1916;51.798;12.246;2022-08-24T01:03:15;12.70;;;9.73;;
3801;SDS011;1916;51.798;12.246;2022-08-24T01:05:17;10.00;;;9.00;;
3801;SDS011;1916;51.798;12.246;2022-08-24T01:07:21;15.00;;;9.60;;
3801;SDS011;1916;51.798;12.246;2022-08-24T01:09:24;12.30;;;9.10;;
3801;SDS011;1916;51.798;12.246;2022-08-24T01:11:28;11.07;;;9.97;;
3801;SDS011;1916;51.798;12.246;2022-08-24T01:13:34;11.80;;;9.30;;
3801;SDS011;1916;51.798;12.246;2022-08-24T01:15:37;12.23;;;9.83;;
3801;SDS011;1916;51.798;12.246;2022-08-24T01:17:41;12.53;;;10.40;;
3801;SDS011;1916;51.798;12.246;2022-08-24T01:20:03;12.60;;;9.80;;
3801;SDS011;1916;51.798;12.246;2022-08-24T01:24:24;9.83;;;8.83;;
3801;SDS011;1916;51.798;12.246;2022-08-24T01:26:33;16.77;;;9.10;;
3801;SDS011;1916;51.798;12.246;2022-08-24T01:28:38;10.53;;;8.80;;
3801;SDS011;1916;51.798;12.246;2022-08-24T01:30:42;17.23;;;9.27;;
3801;SDS011;1916;51.798;12.246;2022-08-24T01:35:22;13.00;;;8.97;;
3801;SDS011;1916;51.798;12.246;2022-08-24T01:37:25;14.87;;;9.67;;
3801;SDS011;1916;51.798;12.246;2022-08-24T01:39:31;12.10;;;10.80;;
3801;SDS011;1916;51.798;12.246;2022-08-24T01:41:36;10.20;;;9.20;;
3801;SDS011;1916;51.798;12.246;2022-08-24T01:43:39;10.20;;;9.10;;
3801;SDS011;1916;51.798;12.246;2022-08-24T01:45:41;10.77;;;9.20;;
3801;SDS011;1916;51.798;12.246;2022-08-24T01:47:44;11.70;;;8.73;;
3801;SDS011;1916;51.798;12.246;2022-08-24T01:49:47;10.37;;;9.37;;
3801;SDS011;1916;51.798;12.246;2022-08-24T01:51:54;12.23;;;9.70;;
3801;SDS011;1916;51.798;12.246;2022-08-24T01:53:57;10.50;;;9.40;;
3801;SDS011;1916;51.798;12.246;2022-08-24T01:56:01;15.70;;;10.27;;
3801;SDS011;1916;51.798;12.246;2022-08-24T01:58:04;13.73;;;10.07;;
3801;SDS011;1916;51.798;12.246;2022-08-24T02:00:07;10.53;;;9.50;;
3801;SDS011;1916;51.798;12.246;2022-08-24T02:02:24;13.63;;;9.77;;
3801;SDS011;1916;51.798;12.246;2022-08-24T02:04:28;11.00;;;9.07;;
3801;SDS011;1916;51.798;12.246;2022-08-24T02:06:30;11.60;;;9.30;;
3801;SDS011;1916;51.798;12.246;2022-08-24T02:08:34;10.63;;;9.60;;
3801;SDS011;1916;51.798;12.246;2022-08-24T02:10:36;11.30;;;9.90;;
3801;SDS011;1916;51.798;12.246;2022-08-24T02:12:39;12.00;;;9.30;;
3801;SDS011;1916;51.798;12.246;2022-08-24T02:14:43;10.90;;;9.30;;
3801;SDS011;1916;51.798;12.246;2022-08-24T02:16:45;10.57;;;9.47;;
3801;SDS011;1916;51.798;12.246;2022-08-24T02:18:48;12.80;;;10.20;;
3801;SDS011;1916;51.798;12.246;2022-08-24T02:20:51;12.23;;;9.90;;
3801;SDS011;1916;51.798;12.246;2022-08-24T02:22:55;13.47;;;10.83;;
3801;SDS011;1916;51.798;12.246;2022-08-24T02:24:58;9.67;;;8.70;;
3801;SDS011;1916;51.798;12.246;2022-08-24T02:27:00;11.90;;;9.90;;
3801;SDS011;1916;51.798;12.246;2022-08-24T02:29:03;11.63;;;10.00;;
3801;SDS011;1916;51.798;12.246;2022-08-24T02:31:06;13.17;;;9.37;;
3801;SDS011;1916;51.798;12.246;2022-08-24T02:33:09;17.10;;;10.53;;
3801;SDS011;1916;51.798;12.246;2022-08-24T02:35:11;10.50;;;9.40;;
3801;SDS011;1916;51.798;12.246;2022-08-24T02:37:13;10.80;;;9.70;;
3801;SDS011;1916;51.798;12.246;2022-08-24T02:39:15;10.87;;;9.77;;
3801;SDS011;1916;51.798;12.246;2022-08-24T02:41:20;11.33;;;8.97;;
3801;SDS011;1916;51.798;12.246;2022-08-24T02:43:24;16.57;;;9.30;;
3801;SDS011;1916;51.798;12.246;2022-08-24T02:45:26;10.83;;;9.50;;
3801;SDS011;1916;51.798;12.246;2022-08-24T02:47:29;10.43;;;9.23;;
3801;SDS011;1916;51.798;12.246;2022-08-24T02:49:40;11.40;;;9.60;;
3801;SDS011;1916;51.798;12.246;2022-08-24T02:51:43;10.80;;;8.53;;
3801;SDS011;1916;51.798;12.246;2022-08-24T02:53:52;10.50;;;9.40;;
3801;SDS011;1916;51.798;12.246;2022-08-24T02:55:55;10.50;;;9.40;;
3801;SDS011;1916;51.798;12.246;2022-08-24T02:57:57;11.10;;;9.93;;
3801;SDS011;1916;51.798;12.246;2022-08-24T02:59:59;12.77;;;9.90;;
3801;SDS011;1916;51.798;12.246;2022-08-24T03:02:01;11.80;;;8.90;;
3801;SDS011;1916;51.798;12.246;2022-08-24T03:04:04;14.60;;;10.10;;
3801;SDS011;1916;51.798;12.246;2022-08-24T03:06:06;10.87;;;9.43;;
3801;SDS011;1916;51.798;12.246;2022-08-24T03:08:09;10.33;;;9.07;;
3801;SDS011;1916;51.798;12.246;2022-08-24T03:10:12;12.10;;;10.50;;
3801;SDS011;1916;51.798;12.246;2022-08-24T03:12:14;10.40;;;8.97;;
3801;SDS011;1916;51.798;12.246;2022-08-24T03:14:16;11.20;;;10.10;;
3801;SDS011;1916;51.798;12.246;2022-08-24T03:16:19;14.30;;;9.40;;
3801;SDS011;1916;51.798;12.246;2022-08-24T03:18:23;14.23;;;10.00;;
3801;SDS011;1916;51.798;12.246;2022-08-24T03:20:29;13.87;;;10.40;;
3801;SDS011;1916;51.798;12.246;2022-08-24T03:22:31;10.07;;;9.03;;
3801;SDS011;1916;51.798;12.246;2022-08-24T03:24:34;10.60;;;9.17;;
3801;SDS011;1916;51.798;12.246;2022-08-24T03:26:36;14.10;;;9.50;;
3801;SDS011;1916;51.798;12.246;2022-08-24T03:28:45;10.50;;;9.40;;
3801;SDS011;1916;51.798;12.246;2022-08-24T03:30:50;10.10;;;9.10;;
3801;SDS011;1916;51.798;12.246;2022-08-24T03:32:53;9.83;;;8.77;;
3801;SDS011;1916;51.798;12.246;2022-08-24T03:34:55;11.10;;;9.87;;
3801;SDS011;1916;51.798;12.246;2022-08-24T03:36:59;10.43;;;9.33;;
3801;SDS011;1916;51.798;12.246;2022-08-24T03:39:02;13.03;;;9.60;;
3801;SDS011;1916;51.798;12.246;2022-08-24T03:41:05;13.83;;;9.60;;
3801;SDS011;1916;51.798;12.246;2022-08-24T03:43:07;10.97;;;9.70;;
3801;SDS011;1916;51.798;12.246;2022-08-24T03:45:09;14.90;;;10.63;;
3801;SDS011;1916;51.798;12.246;2022-08-24T03:47:13;12.77;;;10.40;;
3801;SDS011;1916;51.798;12.246;2022-08-24T03:49:15;13.47;;;10.10;;
3801;SDS011;1916;51.798;12.246;2022-08-24T03:51:19;12.03;;;9.73;;
3801;SDS011;1916;51.798;12.246;2022-08-24T03:53:24;11.47;;;10.27;;
3801;SDS011;1916;51.798;12.246;2022-08-24T03:55:27;13.37;;;10.70;;
3801;SDS011;1916;51.798;12.246;2022-08-24T03:57:29;11.17;;;10.00;;
3801;SDS011;1916;51.798;12.246;2022-08-24T03:59:31;14.33;;;11.00;;
3801;SDS011;1916;51.798;12.246;2022-08-24T04:01:38;11.50;;;10.27;;
3801;SDS011;1916;51.798;12.246;2022-08-24T04:03:42;11.47;;;10.27;;
3801;SDS011;1916;51.798;12.246;2022-08-24T04:05:46;12.17;;;10.37;;
3801;SDS011;1916;51.798;12.246;2022-08-24T04:07:48;18.43;;;11.03;;
3801;SDS011;1916;51.798;12.246;2022-08-24T04:09:50;12.43;;;10.33;;
3801;SDS011;1916;51.798;12.246;2022-08-24T04:11:52;15.17;;;12.07;;
3801;SDS011;1916;51.798;12.246;2022-08-24T04:13:57;15.23;;;11.00;;
3801;SDS011;1916;51.798;12.246;2022-08-24T04:16:03;14.80;;;11.70;;
3801;SDS011;1916;51.798;12.246;2022-08-24T04:18:08;16.70;;;11.60;;
3801;SDS011;1916;51.798;12.246;2022-08-24T04:20:10;12.20;;;10.90;;
3801;SDS011;1916;51.798;12.246;2022-08-24T04:22:14;11.97;;;10.53;;
3801;SDS011;1916;51.798;12.246;2022-08-24T04:24:17;12.43;;;11.13;;
3801;SDS011;1916;51.798;12.246;2022-08-24T04:26:22;20.53;;;11.23;;
3801;SDS011;1916;51.798;12.246;2022-08-24T04:28:44;11.90;;;10.70;;
3801;SDS011;1916;51.798;12.246;2022-08-24T04:30:48;12.90;;;10.20;;
3801;SDS011;1916;51.798;12.246;2022-08-24T04:33:01;15.23;;;12.07;;
3801;SDS011;1916;51.798;12.246;2022-08-24T04:35:04;16.73;;;11.30;;
3801;SDS011;1916;51.798;12.246;2022-08-24T04:37:07;14.53;;;11.10;;
3801;SDS011;1916;51.798;12.246;2022-08-24T04:39:12;12.87;;;11.07;;
3801;SDS011;1916;51.798;12.246;2022-08-24T04:41:34;12.90;;;11.40;;
3801;SDS011;1916;51.798;12.246;2022-08-24T04:43:37;13.90;;;12.50;;
3801;SDS011;1916;51.798;12.246;2022-08-24T04:45:40;16.97;;;12.73;;
3801;SDS011;1916;51.798;12.246;2022-08-24T04:47:43;18.40;;;13.03;;
3801;SDS011;1916;51.798;12.246;2022-08-24T04:49:46;16.73;;;13.00;;
3801;SDS011;1916;51.798;12.246;2022-08-24T04:51:48;18.40;;;13.30;;
3801;SDS011;1916;51.798;12.246;2022-08-24T04:53:51;16.97;;;14.00;;
3801;SDS011;1916;51.798;12.246;2022-08-24T04:55:53;14.27;;;12.07;;
3801;SDS011;1916;51.798;12.246;2022-08-24T04:57:55;15.43;;;13.60;;
3801;SDS011;1916;51.798;12.246;2022-08-24T04:59:57;14.57;;;13.00;;
3801;SDS011;1916;51.798;12.246;2022-08-24T05:02:00;13.83;;;12.43;;
3801;SDS011;1916;51.798;12.246;2022-08-24T05:04:02;16.27;;;13.13;;
3801;SDS011;1916;51.798;12.246;2022-08-24T05:06:05;16.90;;;12.50;;
3801;SDS011;1916;51.798;12.246;2022-08-24T05:08:08;14.33;;;12.77;;
3801;SDS011;1916;51.798;12.246;2022-08-24T05:10:10;15.67;;;12.27;;
3801;SDS011;1916;51.798;12.246;2022-08-24T05:12:12;17.13;;;12.50;;
3801;SDS011;1916;51.798;12.246;2022-08-24T05:14:23;19.27;;;14.93;;
3801;SDS011;1916;51.798;12.246;2022-08-24T05:16:29;16.10;;;14.40;;
3801;SDS011;1916;51.798;12.246;2022-08-24T05:18:33;16.87;;;14.63;;
3801;SDS011;1916;51.798;12.246;2022-08-24T05:20:38;16.67;;;14.73;;
3801;SDS011;1916;51.798;12.246;2022-08-24T05:22:44;17.83;;;14.30;;
3801;SDS011;1916;51.798;12.246;2022-08-24T05:24:46;17.40;;;14.20;;
3801;SDS011;1916;51.798;12.246;2022-08-24T05:26:48;19.33;;;13.90;;
3801;SDS011;1916;51.798;12.246;2022-08-24T05:28:55;19.00;;;14.40;;
3801;SDS011;1916;51.798;12.246;2022-08-24T05:31:14;16.93;;;15.10;;
3801;SDS011;1916;51.798;12.246;2022-08-24T05:33:20;19.23;;;14.90;;
3801;SDS011;1916;51.798;12.246;2022-08-24T05:35:22;19.13;;;15.50;;
3801;SDS011;1916;51.798;12.246;2022-08-24T05:37:24;17.60;;;15.27;;
3801;SDS011;1916;51.798;12.246;2022-08-24T05:39:45;17.63;;;15.50;;
3801;SDS011;1916;51.798;12.246;2022-08-24T05:41:47;21.40;;;16.23;;
3801;SDS011;1916;51.798;12.246;2022-08-24T05:44:00;27.10;;;15.93;;
3801;SDS011;1916;51.798;12.246;2022-08-24T05:46:07;17.67;;;15.77;;
3801;SDS011;1916;51.798;12.246;2022-08-24T05:48:09;19.50;;;15.47;;
3801;SDS011;1916;51.798;12.246;2022-08-24T05:50:30;25.30;;;15.43;;
3801;SDS011;1916;51.798;12.246;2022-08-24T05:52:33;15.97;;;14.30;;
3801;SDS011;1916;51.798;12.246;2022-08-24T05:54:36;18.60;;;16.60;;
3801;SDS011;1916;51.798;12.246;2022-08-24T05:56:38;22.47;;;15.50;;
3801;SDS011;1916;51.798;12.246;2022-08-24T05:58:41;24.67;;;17.37;;
3801;SDS011;1916;51.798;12.246;2022-08-24T06:00:43;22.50;;;17.43;;
3801;SDS011;1916;51.798;12.246;2022-08-24T06:02:46;22.93;;;16.80;;
3801;SDS011;1916;51.798;12.246;2022-08-24T06:04:48;18.70;;;14.53;;
3801;SDS011;1916;51.798;12.246;2022-08-24T06:06:50;24.43;;;15.03;;
3801;SDS011;1916;51.798;12.246;2022-08-24T06:08:54;18.57;;;14.20;;
3801;SDS011;1916;51.798;12.246;2022-08-24T06:10:57;14.77;;;13.20;;
3801;SDS011;1916;51.798;12.246;2022-08-24T06:13:01;15.43;;;12.50;;
3801;SDS011;1916;51.798;12.246;2022-08-24T06:15:04;14.70;;;12.50;;
3801;SDS011;1916;51.798;12.246;2022-08-24T06:17:07;17.13;;;12.77;;
3801;SDS011;1916;51.798;12.246;2022-08-24T06:19:11;17.30;;;14.17;;
3801;SDS011;1916;51.798;12.246;2022-08-24T06:21:15;13.80;;;12.40;;
3801;SDS011;1916;51.798;12.246;2022-08-24T06:23:19;14.33;;;11.80;;
3801;SDS011;1916;51.798;12.246;2022-08-24T06:25:29;26.47;;;12.13;;
3801;SDS011;1916;51.798;12.246;2022-08-24T06:27:49;16.83;;;11.80;;
3801;SDS011;1916;51.798;12.246;2022-08-24T06:29:52;11.47;;;10.17;;
3801;SDS011;1916;51.798;12.246;2022-08-24T06:32:28;15.40;;;10.40;;
3801;SDS011;1916;51.798;12.246;2022-08-24T06:34:30;11.97;;;10.40;;
3801;SDS011;1916;51.798;12.246;2022-08-24T06:36:32;12.70;;;9.03;;
3801;SDS011;1916;51.798;12.246;2022-08-24T06:38:34;11.67;;;9.43;;
3801;SDS011;1916;51.798;12.246;2022-08-24T06:40:38;11.60;;;10.07;;
3801;SDS011;1916;51.798;12.246;2022-08-24T06:42:41;10.43;;;9.00;;
3801;SDS011;1916;51.798;12.246;2022-08-24T06:45:01;11.63;;;9.00;;
3801;SDS011;1916;51.798;12.246;2022-08-24T06:47:04;12.07;;;9.90;;
3801;SDS011;1916;51.798;12.246;2022-08-24T06:49:06;19.83;;;11.60;;
3801;SDS011;1916;51.798;12.246;2022-08-24T06:51:10;11.30;;;10.13;;
3801;SDS011;1916;51.798;12.246;2022-08-24T06:53:13;13.67;;;11.10;;
3801;SDS011;1916;51.798;12.246;2022-08-24T06:55:16;16.60;;;11.00;;
3801;SDS011;1916;51.798;12.246;2022-08-24T06:57:18;19.00;;;11.17;;
3801;SDS011;1916;51.798;12.246;2022-08-24T06:59:20;12.60;;;11.20;;
3801;SDS011;1916;51.798;12.246;2022-08-24T07:01:24;12.07;;;9.80;;
3801;SDS011;1916;51.798;12.246;2022-08-24T07:03:29;10.83;;;9.70;;
3801;SDS011;1916;51.798;12.246;2022-08-24T07:05:50;17.43;;;9.47;;
3801;SDS011;1916;51.798;12.246;2022-08-24T07:08:13;11.97;;;8.80;;
3801;SDS011;1916;51.798;12.246;2022-08-24T07:10:15;9.60;;;8.47;;
3801;SDS011;1916;51.798;12.246;2022-08-24T07:12:23;13.87;;;8.73;;
3801;SDS011;1916;51.798;12.246;2022-08-24T07:14:28;10.30;;;8.60;;
3801;SDS011;1916;51.798;12.246;2022-08-24T07:16:32;10.40;;;7.60;;
3801;SDS011;1916;51.798;12.246;2022-08-24T07:18:36;9.70;;;6.93;;
3801;SDS011;1916;51.798;12.246;2022-08-24T07:20:41;11.90;;;6.90;;
3801;SDS011;1916;51.798;12.246;2022-08-24T07:22:57;9.83;;;6.00;;
3801;SDS011;1916;51.798;12.246;2022-08-24T07:24:59;7.47;;;6.00;;
3801;SDS011;1916;51.798;12.246;2022-08-24T07:27:02;14.23;;;6.50;;
3801;SDS011;1916;51.798;12.246;2022-08-24T07:29:05;11.47;;;6.57;;
3801;SDS011;1916;51.798;12.246;2022-08-24T07:31:34;8.37;;;5.90;;
3801;SDS011;1916;51.798;12.246;2022-08-24T07:33:44;12.57;;;5.67;;
3801;SDS011;1916;51.798;12.246;2022-08-24T07:35:46;7.17;;;5.97;;
3801;SDS011;1916;51.798;12.246;2022-08-24T07:37:48;8.70;;;5.83;;
3801;SDS011;1916;51.798;12.246;2022-08-24T07:39:53;8.13;;;6.03;;
3801;SDS011;1916;51.798;12.246;2022-08-24T07:41:55;6.80;;;5.90;;
3801;SDS011;1916;51.798;12.246;2022-08-24T07:44:14;9.90;;;5.50;;
3801;SDS011;1916;51.798;12.246;2022-08-24T07:46:17;8.80;;;5.80;;
3801;SDS011;1916;51.798;12.246;2022-08-24T07:48:19;10.60;;;5.10;;
3801;SDS011;1916;51.798;12.246;2022-08-24T07:50:21;6.00;;;5.07;;
3801;SDS011;1916;51.798;12.246;2022-08-24T07:52:24;6.63;;;4.60;;
3801;SDS011;1916;51.798;12.246;2022-08-24T07:54:26;8.77;;;5.07;;
3801;SDS011;1916;51.798;12.246;2022-08-24T07:56:29;9.80;;;5.00;;
3801;SDS011;1916;51.798;12.246;2022-08-24T07:58:36;6.90;;;5.00;;
3801;SDS011;1916;51.798;12.246;2022-08-24T08:00:38;8.00;;;4.50;;
3801;SDS011;1916;51.798;12.246;2022-08-24T08:02:41;7.37;;;4.93;;
3801;SDS011;1916;51.798;12.246;2022-08-24T08:04:48;4.87;;;4.03;;
3801;SDS011;1916;51.798;12.246;2022-08-24T08:06:51;7.33;;;4.63;;
3801;SDS011;1916;51.798;12.246;2022-08-24T08:08:54;6.83;;;4.93;;
3801;SDS011;1916;51.798;12.246;2022-08-24T08:10:56;5.33;;;4.67;;
3801;SDS011;1916;51.798;12.246;2022-08-24T08:12:59;9.27;;;4.77;;
3801;SDS011;1916;51.798;12.246;2022-08-24T08:15:01;8.07;;;4.60;;
3801;SDS011;1916;51.798;12.246;2022-08-24T08:17:03;7.27;;;4.10;;
3801;SDS011;1916;51.798;12.246;2022-08-24T08:19:05;9.50;;;4.60;;
3801;SDS011;1916;51.798;12.246;2022-08-24T08:21:15;12.00;;;4.50;;
3801;SDS011;1916;51.798;12.246;2022-08-24T08:23:36;6.57;;;4.07;;
3801;SDS011;1916;51.798;12.246;2022-08-24T08:26:06;6.03;;;3.97;;
3801;SDS011;1916;51.798;12.246;2022-08-24T08:28:29;6.93;;;3.70;;
3801;SDS011;1916;51.798;12.246;2022-08-24T08:30:37;5.97;;;3.70;;
3801;SDS011;1916;51.798;12.246;2022-08-24T08:32:39;6.00;;;4.00;;
3801;SDS011;1916;51.798;12.246;2022-08-24T08:34:41;7.77;;;3.20;;
3801;SDS011;1916;51.798;12.246;2022-08-24T08:36:44;5.83;;;3.90;;
3801;SDS011;1916;51.798;12.246;2022-08-24T08:38:47;10.83;;;4.10;;
3801;SDS011;1916;51.798;12.246;2022-08-24T08:43:42;7.50;;;3.93;;
3801;SDS011;1916;51.798;12.246;2022-08-24T08:46:10;5.77;;;4.53;;
3801;SDS011;1916;51.798;12.246;2022-08-24T09:23:17;5.03;;;3.03;;
3801;SDS011;1916;51.798;12.246;2022-08-24T09:25:36;4.20;;;3.10;;
3801;SDS011;1916;51.798;12.246;2022-08-24T09:30:10;9.13;;;3.20;;
3801;SDS011;1916;51.798;12.246;2022-08-24T09:32:24;3.33;;;2.93;;
3801;SDS011;1916;51.798;12.246;2022-08-24T09:34:51;4.50;;;3.10;;
3801;SDS011;1916;51.798;12.246;2022-08-24T09:37:04;5.23;;;2.90;;
3801;SDS011;1916;51.798;12.246;2022-08-24T10:02:26;7.87;;;3.17;;
3801;SDS011;1916;51.798;12.246;2022-08-24T10:04:49;5.57;;;2.80;;
3801;SDS011;1916;51.798;12.246;2022-08-24T10:07:08;5.90;;;2.47;;
3801;SDS011;1916;51.798;12.246;2022-08-24T10:11:53;5.87;;;2.47;;
3801;SDS011;1916;51.798;12.246;2022-08-24T10:16:28;4.87;;;2.87;;
3801;SDS011;1916;51.798;12.246;2022-08-24T10:40:37;6.60;;;2.97;;
3801;SDS011;1916;51.798;12.246;2022-08-24T10:57:24;10.53;;;3.80;;
3801;SDS011;1916;51.798;12.246;2022-08-24T10:59:46;6.20;;;4.90;;
3801;SDS011;1916;51.798;12.246;2022-08-24T11:02:00;3.80;;;3.20;;
3801;SDS011;1916;51.798;12.246;2022-08-24T11:04:22;3.97;;;3.37;;
3801;SDS011;1916;51.798;12.246;2022-08-24T11:06:30;8.50;;;2.80;;
3801;SDS011;1916;51.798;12.246;2022-08-24T11:08:36;6.03;;;3.40;;
3801;SDS011;1916;51.798;12.246;2022-08-24T11:11:09;4.83;;;3.53;;
3801;SDS011;1916;51.798;12.246;2022-08-24T11:13:25;9.00;;;2.47;;
3801;SDS011;1916;51.798;12.246;2022-08-24T11:15:28;5.73;;;2.50;;
3801;SDS011;1916;51.798;12.246;2022-08-24T11:17:30;4.50;;;2.93;;
3801;SDS011;1916;51.798;12.246;2022-08-24T11:19:35;6.47;;;2.67;;
3801;SDS011;1916;51.798;12.246;2022-08-24T11:21:42;3.77;;;3.00;;
3801;SDS011;1916;51.798;12.246;2022-08-24T11:23:49;4.57;;;2.93;;
3801;SDS011;1916;51.798;12.246;2022-08-24T11:30:43;5.73;;;2.33;;
3801;SDS011;1916;51.798;12.246;2022-08-24T11:32:49;5.37;;;2.90;;
3801;SDS011;1916;51.798;12.246;2022-08-24T11:34:53;4.00;;;2.97;;
3801;SDS011;1916;51.798;12.246;2022-08-24T11:36:55;14.10;;;3.50;;
3801;SDS011;1916;51.798;12.246;2022-08-24T11:39:09;5.47;;;2.70;;
3801;SDS011;1916;51.798;12.246;2022-08-24T11:43:27;2.33;;;2.00;;
3801;SDS011;1916;51.798;12.246;2022-08-24T11:45:43;4.60;;;2.97;;
3801;SDS011;1916;51.798;12.246;2022-08-24T11:50:02;3.27;;;2.97;;
3801;SDS011;1916;51.798;12.246;2022-08-24T11:54:42;6.10;;;2.57;;
3801;SDS011;1916;51.798;12.246;2022-08-24T12:01:38;2.83;;;2.17;;
3801;SDS011;1916;51.798;12.246;2022-08-24T12:03:53;6.30;;;2.23;;
3801;SDS011;1916;51.798;12.246;2022-08-24T12:06:41;5.07;;;2.40;;
3801;SDS011;1916;51.798;12.246;2022-08-24T12:08:54;8.40;;;1.93;;
3801;SDS011;1916;51.798;12.246;2022-08-24T12:11:14;3.57;;;2.20;;
3801;SDS011;1916;51.798;12.246;2022-08-24T12:13:54;3.27;;;2.37;;
3801;SDS011;1916;51.798;12.246;2022-08-24T12:20:39;3.63;;;2.50;;
3801;SDS011;1916;51.798;12.246;2022-08-24T12:22:43;3.63;;;2.50;;
3801;SDS011;1916;51.798;12.246;2022-08-24T12:24:47;3.40;;;2.63;;
3801;SDS011;1916;51.798;12.246;2022-08-24T12:27:34;2.53;;;2.27;;
3801;SDS011;1916;51.798;12.246;2022-08-24T12:29:28;4.23;;;2.40;;
3801;SDS011;1916;51.798;12.246;2022-08-24T12:31:38;3.57;;;2.33;;
3801;SDS011;1916;51.798;12.246;2022-08-24T12:33:45;3.37;;;2.67;;
3801;SDS011;1916;51.798;12.246;2022-08-24T12:35:53;2.67;;;2.47;;
3801;SDS011;1916;51.798;12.246;2022-08-24T12:44:58;6.50;;;3.00;;
3801;SDS011;1916;51.798;12.246;2022-08-24T12:47:02;4.27;;;2.87;;
3801;SDS011;1916;51.798;12.246;2022-08-24T12:49:15;4.90;;;2.50;;
3801;SDS011;1916;51.798;12.246;2022-08-24T12:51:25;3.17;;;2.40;;
3801;SDS011;1916;51.798;12.246;2022-08-24T13:01:01;3.73;;;2.80;;
3801;SDS011;1916;51.798;12.246;2022-08-24T13:03:07;3.80;;;3.30;;
3801;SDS011;1916;51.798;12.246;2022-08-24T13:05:37;3.83;;;2.90;;
3801;SDS011;1916;51.798;12.246;2022-08-24T13:07:43;3.13;;;2.67;;
3801;SDS011;1916;51.798;12.246;2022-08-24T13:11:53;3.50;;;2.70;;
3801;SDS011;1916;51.798;12.246;2022-08-24T13:15:59;4.60;;;2.83;;
3801;SDS011;1916;51.798;12.246;2022-08-24T13:20:14;4.40;;;3.23;;
3801;SDS011;1916;51.798;12.246;2022-08-24T13:22:35;5.63;;;2.83;;
3801;SDS011;1916;51.798;12.246;2022-08-24T13:26:42;5.63;;;2.90;;
3801;SDS011;1916;51.798;12.246;2022-08-24T13:28:44;5.50;;;3.83;;
3801;SDS011;1916;51.798;12.246;2022-08-24T13:33:05;3.43;;;2.70;;
3801;SDS011;1916;51.798;12.246;2022-08-24T13:37:31;6.37;;;2.70;;
3801;SDS011;1916;51.798;12.246;2022-08-24T13:46:50;4.87;;;2.97;;
3801;SDS011;1916;51.798;12.246;2022-08-24T13:49:01;7.17;;;3.10;;
3801;SDS011;1916;51.798;12.246;2022-08-24T13:53:49;4.57;;;3.30;;
3801;SDS011;1916;51.798;12.246;2022-08-24T14:08:39;7.70;;;3.27;;
3801;SDS011;1916;51.798;12.246;2022-08-24T14:15:30;4.17;;;2.97;;
3801;SDS011;1916;51.798;12.246;2022-08-24T14:20:38;7.03;;;3.70;;
3801;SDS011;1916;51.798;12.246;2022-08-24T14:25:18;6.23;;;3.73;;
3801;SDS011;1916;51.798;12.246;2022-08-24T14:29:44;5.60;;;3.63;;
3801;SDS011;1916;51.798;12.246;2022-08-24T14:36:56;7.33;;;4.10;;
3801;SDS011;1916;51.798;12.246;2022-08-24T14:39:03;5.20;;;4.13;;
3801;SDS011;1916;51.798;12.246;2022-08-24T14:41:38;7.87;;;4.63;;
3801;SDS011;1916;51.798;12.246;2022-08-24T15:00:48;5.70;;;3.90;;
3801;SDS011;1916;51.798;12.246;2022-08-24T15:03:10;4.33;;;3.87;;
3801;SDS011;1916;51.798;12.246;2022-08-24T15:07:35;6.53;;;3.67;;
3801;SDS011;1916;51.798;12.246;2022-08-24T15:09:41;5.90;;;3.70;;
3801;SDS011;1916;51.798;12.246;2022-08-24T15:11:44;4.87;;;4.37;;
3801;SDS011;1916;51.798;12.246;2022-08-24T15:13:53;16.70;;;4.33;;
3801;SDS011;1916;51.798;12.246;2022-08-24T15:16:07;43.13;;;11.97;;
3801;SDS011;1916;51.798;12.246;2022-08-24T15:18:30;7.00;;;4.00;;
3801;SDS011;1916;51.798;12.246;2022-08-24T15:20:40;5.20;;;4.50;;
3801;SDS011;1916;51.798;12.246;2022-08-24T15:23:01;6.97;;;4.37;;
3801;SDS011;1916;51.798;12.246;2022-08-24T15:25:10;6.90;;;3.37;;
3801;SDS011;1916;51.798;12.246;2022-08-24T15:27:23;6.77;;;4.20;;
3801;SDS011;1916;51.798;12.246;2022-08-24T15:29:31;6.80;;;4.00;;
3801;SDS011;1916;51.798;12.246;2022-08-24T15:31:34;8.57;;;4.20;;
3801;SDS011;1916;51.798;12.246;2022-08-24T15:33:53;7.03;;;4.37;;
3801;SDS011;1916;51.798;12.246;2022-08-24T15:36:14;5.70;;;3.73;;
3801;SDS011;1916;51.798;12.246;2022-08-24T15:38:19;9.10;;;4.63;;
3801;SDS011;1916;51.798;12.246;2022-08-24T15:40:28;6.80;;;4.40;;
3801;SDS011;1916;51.798;12.246;2022-08-24T15:42:33;12.90;;;4.80;;
3801;SDS011;1916;51.798;12.246;2022-08-24T15:44:37;6.00;;;4.63;;
3801;SDS011;1916;51.798;12.246;2022-08-24T15:46:47;4.70;;;4.30;;
3801;SDS011;1916;51.798;12.246;2022-08-24T15:48:52;5.53;;;4.03;;
3801;SDS011;1916;51.798;12.246;2022-08-24T15:50:58;8.50;;;4.87;;
3801;SDS011;1916;51.798;12.246;2022-08-24T15:53:04;5.00;;;4.50;;
3801;SDS011;1916;51.798;12.246;2022-08-24T15:57:38;5.00;;;4.50;;
3801;SDS011;1916;51.798;12.246;2022-08-24T16:01:44;4.80;;;4.40;;
3801;SDS011;1916;51.798;12.246;2022-08-24T16:06:42;9.30;;;5.17;;
3801;SDS011;1916;51.798;12.246;2022-08-24T16:14:03;6.20;;;4.77;;
3801;SDS011;1916;51.798;12.246;2022-08-24T16:16:10;12.73;;;5.37;;
3801;SDS011;1916;51.798;12.246;2022-08-24T16:18:14;9.23;;;4.70;;
3801;SDS011;1916;51.798;12.246;2022-08-24T16:22:30;6.23;;;4.70;;
3801;SDS011;1916;51.798;12.246;2022-08-24T16:24:35;8.13;;;4.73;;
3801;SDS011;1916;51.798;12.246;2022-08-24T16:28:48;6.67;;;5.03;;
3801;SDS011;1916;51.798;12.246;2022-08-24T16:30:53;10.33;;;5.27;;
3801;SDS011;1916;51.798;12.246;2022-08-24T16:32:57;7.40;;;5.80;;
3801;SDS011;1916;51.798;12.246;2022-08-24T16:37:12;56.00;;;38.20;;
3801;SDS011;1916;51.798;12.246;2022-08-24T16:39:15;23.97;;;21.40;;
3801;SDS011;1916;51.798;12.246;2022-08-24T16:41:18;43.33;;;38.63;;
3801;SDS011;1916;51.798;12.246;2022-08-24T16:43:22;20.77;;;17.37;;
3801;SDS011;1916;51.798;12.246;2022-08-24T16:45:24;9.80;;;5.50;;
3801;SDS011;1916;51.798;12.246;2022-08-24T16:47:27;81.73;;;63.17;;